createdAt,value
2018-07-15T00:03:02.685Z,80.17
2018-07-15T00:08:05.828Z,80.59
2018-07-15T00:13:09.437Z,80.50
2018-07-15T00:18:12.671Z,80.66
2018-07-15T00:23:15.988Z,81.80
2018-07-15T00:28:19.203Z,82.02
2018-07-15T00:33:22.428Z,82.46
2018-07-15T00:38:25.546Z,82.93
2018-07-15T00:43:28.696Z,83.37
2018-07-15T00:48:31.828Z,83.55
2018-07-15T00:53:35.059Z,84.21
2018-07-15T00:58:38.198Z,84.56
2018-07-15T01:03:41.498Z,84.79
2018-07-15T01:08:44.694Z,85.43
2018-07-15T01:13:48.807Z,85.64
2018-07-15T01:18:51.963Z,86.00
2018-07-15T01:23:55.039Z,86.11
2018-07-15T01:28:58.217Z,86.09
2018-07-15T01:34:01.422Z,86.59
2018-07-15T01:39:05.165Z,86.69
2018-07-15T01:44:08.321Z,87.09
2018-07-15T01:49:11.509Z,87.01
2018-07-15T01:54:14.737Z,87.57
2018-07-15T01:59:17.889Z,87.92
2018-07-15T02:04:21.119Z,87.70
2018-07-15T02:09:24.236Z,88.06
2018-07-15T02:14:27.547Z,88.48
2018-07-15T02:19:30.673Z,88.97
2018-07-15T02:24:33.805Z,90.00
2018-07-15T02:29:36.954Z,90.71
2018-07-15T02:34:40.076Z,90.94
2018-07-15T02:39:43.164Z,90.92
2018-07-15T02:44:46.271Z,91.42
2018-07-15T02:49:49.416Z,91.60
2018-07-15T02:54:52.581Z,91.42
2018-07-15T02:59:55.773Z,91.98
2018-07-15T03:04:58.893Z,92.33
2018-07-15T03:10:02.097Z,91.98
2018-07-15T03:15:05.305Z,90.65
2018-07-15T03:20:08.707Z,89.30
2018-07-15T03:25:11.906Z,89.93
2018-07-15T03:30:15.075Z,90.20
2018-07-15T03:35:18.247Z,89.92
2018-07-15T03:40:26.869Z,88.66
2018-07-15T03:45:30.008Z,87.59
2018-07-15T03:50:33.131Z,86.56
2018-07-15T03:55:36.293Z,85.13
2018-07-15T04:00:39.539Z,82.63
2018-07-15T04:05:42.632Z,80.31
2018-07-15T04:10:45.855Z,78.17
2018-07-15T04:15:49.204Z,76.34
2018-07-15T04:20:52.463Z,75.27
2018-07-15T04:25:55.666Z,75.91
2018-07-15T04:30:58.876Z,76.48
2018-07-15T04:36:02.804Z,74.02
2018-07-15T04:41:06.797Z,70.45
2018-07-15T04:46:10.129Z,65.32
2018-07-15T04:51:13.261Z,58.88
2018-07-15T04:56:17.141Z,53.52
2018-07-15T05:01:20.496Z,52.21
2018-07-15T05:06:24.099Z,40.71
2018-07-15T05:11:27.751Z,36.67
2018-07-15T05:16:31.775Z,34.04
2018-07-15T05:21:34.952Z,32.96
2018-07-15T05:26:38.155Z,38.63
2018-07-15T05:31:41.298Z,35.87
2018-07-15T05:36:44.566Z,30.87
2018-07-15T05:41:47.779Z,33.63
2018-07-15T05:46:51.070Z,36.25
2018-07-15T05:51:54.331Z,35.00
2018-07-15T05:56:57.491Z,34.67
2018-07-15T06:02:00.760Z,35.72
2018-07-15T06:07:03.978Z,32.41
2018-07-15T06:12:07.219Z,29.48
2018-07-15T06:17:10.445Z,27.82
2018-07-15T06:22:13.609Z,25.01
2018-07-15T06:27:16.880Z,23.90
2018-07-15T06:32:20.343Z,21.93
2018-07-15T06:37:23.643Z,23.00
2018-07-15T06:42:26.774Z,24.49
2018-07-15T06:47:29.877Z,25.18
2018-07-15T06:52:33.461Z,23.98
2018-07-15T06:57:36.647Z,25.15
2018-07-15T07:02:41.964Z,25.25
2018-07-15T07:07:45.317Z,22.36
2018-07-15T07:12:49.288Z,22.22
2018-07-15T07:17:53.341Z,23.08
2018-07-15T07:22:56.472Z,24.95
2018-07-15T07:27:59.611Z,23.32
2018-07-15T07:33:02.737Z,22.12
2018-07-15T07:38:05.834Z,22.68
2018-07-15T07:43:08.976Z,23.31
2018-07-15T07:48:12.120Z,22.53
2018-07-15T07:53:15.924Z,22.45
2018-07-15T07:58:19.103Z,23.57
2018-07-15T08:03:22.282Z,22.53
2018-07-15T08:08:25.522Z,21.65
2018-07-15T08:13:29.975Z,20.87
2018-07-15T08:18:33.146Z,21.59
2018-07-15T08:23:36.413Z,20.50
2018-07-15T08:28:39.614Z,24.10
2018-07-15T08:33:45.494Z,23.70
2018-07-15T08:38:48.788Z,26.92
2018-07-15T08:43:51.921Z,25.03
2018-07-15T08:48:55.943Z,25.78
2018-07-15T08:53:59.099Z,23.35
2018-07-15T08:59:02.240Z,25.01
2018-07-15T09:04:05.357Z,23.78
2018-07-15T09:09:08.510Z,28.51
2018-07-15T09:14:14.047Z,28.67
2018-07-15T09:19:17.813Z,27.31
2018-07-15T09:24:21.070Z,24.29
2018-07-15T09:29:30.691Z,27.19
2018-07-15T09:34:33.814Z,24.55
2018-07-15T09:39:37.033Z,25.14
2018-07-15T09:44:40.182Z,26.74
2018-07-15T09:49:43.266Z,28.12
2018-07-15T09:54:46.511Z,27.34
2018-07-15T09:59:49.656Z,26.38
2018-07-15T10:04:52.902Z,26.21
2018-07-15T10:09:56.219Z,24.17
2018-07-15T10:14:59.275Z,27.43
2018-07-15T10:20:02.585Z,25.51
2018-07-15T10:25:05.745Z,29.01
2018-07-15T10:30:08.900Z,32.33
2018-07-15T10:35:12.085Z,27.10
2018-07-15T10:40:15.268Z,29.44
2018-07-15T10:45:19.307Z,26.49
2018-07-15T10:50:22.455Z,27.63
2018-07-15T10:55:25.741Z,28.72
2018-07-15T11:00:28.978Z,28.06
2018-07-15T11:05:32.122Z,30.33
2018-07-15T11:10:35.288Z,29.67
2018-07-15T11:15:38.390Z,31.42
2018-07-15T11:20:41.514Z,29.61
2018-07-15T11:25:44.682Z,30.43
2018-07-15T11:30:47.948Z,32.23
2018-07-15T11:35:51.104Z,29.48
2018-07-15T11:40:54.366Z,31.71
2018-07-15T11:45:57.583Z,33.26
2018-07-15T11:51:00.750Z,33.23
2018-07-15T11:56:03.956Z,31.52
2018-07-15T12:01:07.187Z,29.96
2018-07-15T12:06:10.385Z,32.85
2018-07-15T12:11:13.625Z,31.96
2018-07-15T12:16:16.839Z,30.40
2018-07-15T12:21:20.085Z,31.14
2018-07-15T12:26:23.191Z,30.32
2018-07-15T12:31:26.297Z,32.70
2018-07-15T12:36:29.388Z,29.25
2018-07-15T12:41:32.588Z,31.33
2018-07-15T12:46:35.893Z,31.71
2018-07-15T12:51:39.407Z,30.93
2018-07-15T12:56:42.568Z,29.69
2018-07-15T13:01:46.009Z,33.53
2018-07-15T13:06:49.128Z,30.90
2018-07-15T13:11:52.198Z,30.65
2018-07-15T13:16:55.438Z,32.20
2018-07-15T13:21:58.552Z,31.20
2018-07-15T13:27:01.677Z,32.56
2018-07-15T13:32:04.974Z,32.19
2018-07-15T13:37:08.117Z,33.75
2018-07-15T13:42:11.200Z,33.13
2018-07-15T13:47:14.377Z,32.05
2018-07-15T13:52:17.550Z,31.87
2018-07-15T13:57:20.779Z,31.05
2018-07-15T14:02:23.947Z,30.27
2018-07-15T14:07:27.073Z,30.85
2018-07-15T14:12:30.163Z,31.93
2018-07-15T14:17:34.601Z,31.02
2018-07-15T14:22:37.687Z,32.58
2018-07-15T14:27:40.792Z,34.13
2018-07-15T14:32:44.009Z,33.67
2018-07-15T14:37:47.337Z,30.56
2018-07-15T14:42:50.563Z,31.84
2018-07-15T14:47:53.732Z,31.00
2018-07-15T14:52:56.859Z,30.08
2018-07-15T14:57:59.988Z,31.50
2018-07-15T15:03:03.167Z,31.30
2018-07-15T15:08:06.397Z,29.51
2018-07-15T15:13:09.633Z,30.09
2018-07-15T15:18:12.787Z,32.95
2018-07-15T15:23:16.018Z,31.10
2018-07-15T15:28:19.236Z,30.08
2018-07-15T15:33:22.456Z,29.93
2018-07-15T15:38:25.636Z,30.47
2018-07-15T15:43:28.785Z,30.13
2018-07-15T15:48:31.859Z,31.07
2018-07-15T15:53:34.996Z,30.02
2018-07-15T15:58:38.129Z,31.35
2018-07-15T16:03:41.260Z,32.31
2018-07-15T16:08:44.344Z,30.53
2018-07-15T16:13:47.718Z,30.23
2018-07-15T16:18:50.863Z,28.35
2018-07-15T16:23:54.132Z,31.86
2018-07-15T16:28:57.345Z,31.27
2018-07-15T16:34:00.581Z,31.40
2018-07-15T16:39:04.147Z,32.15
2018-07-15T16:44:07.375Z,30.63
2018-07-15T16:49:10.564Z,30.38
2018-07-15T16:54:13.697Z,30.94
2018-07-15T16:59:17.349Z,30.56
2018-07-15T17:04:20.489Z,29.67
2018-07-15T17:09:23.777Z,30.46
2018-07-15T17:14:26.933Z,30.66
2018-07-15T17:19:30.135Z,30.77
2018-07-15T17:24:33.418Z,30.38
2018-07-15T17:29:36.675Z,31.01
2018-07-15T17:34:39.802Z,31.01
2018-07-15T17:39:42.947Z,31.77
2018-07-15T17:44:46.222Z,32.54
2018-07-15T17:49:49.361Z,34.30
2018-07-15T17:54:52.886Z,34.26
2018-07-15T17:59:56.280Z,33.21
2018-07-15T18:04:59.593Z,32.67
2018-07-15T18:10:02.727Z,33.43
2018-07-15T18:15:05.981Z,33.29
2018-07-15T18:20:09.174Z,34.40
2018-07-15T18:25:12.395Z,34.69
2018-07-15T18:30:15.619Z,35.46
2018-07-15T18:35:18.834Z,35.40
2018-07-15T18:40:22.132Z,36.79
2018-07-15T18:45:29.699Z,38.23
2018-07-15T18:50:33.260Z,39.13
2018-07-15T18:55:36.414Z,39.86
2018-07-15T19:00:39.743Z,41.07
2018-07-15T19:05:45.052Z,43.40
2018-07-15T19:10:48.221Z,43.48
2018-07-15T19:15:51.721Z,44.38
2018-07-15T19:20:55.082Z,45.13
2018-07-15T19:26:04.863Z,45.80
2018-07-15T19:31:08.057Z,47.99
2018-07-15T19:36:11.527Z,51.33
2018-07-15T19:41:14.698Z,54.17
2018-07-15T19:46:17.835Z,55.24
2018-07-15T19:51:21.088Z,56.90
2018-07-15T19:56:24.714Z,57.85
2018-07-15T20:01:28.381Z,59.54
2018-07-15T20:06:32.551Z,57.94
2018-07-15T20:11:35.696Z,59.98
2018-07-15T20:16:38.852Z,61.45
2018-07-15T20:21:42.005Z,62.14
2018-07-15T20:26:45.170Z,62.78
2018-07-15T20:31:48.350Z,62.89
2018-07-15T20:36:51.586Z,63.52
2018-07-15T20:41:54.885Z,65.04
2018-07-15T20:46:58.628Z,65.61
2018-07-15T20:52:01.816Z,67.90
2018-07-15T20:57:05.227Z,69.24
2018-07-15T21:02:08.386Z,68.80
2018-07-15T21:07:11.564Z,68.84
2018-07-15T21:12:14.699Z,69.78
2018-07-15T21:17:17.855Z,70.47
2018-07-15T21:22:21.002Z,71.42
2018-07-15T21:27:24.273Z,71.08
2018-07-15T21:32:27.453Z,73.03
2018-07-15T21:37:30.638Z,73.07
2018-07-15T21:42:33.881Z,73.03
2018-07-15T21:47:37.035Z,73.23
2018-07-15T21:52:40.758Z,73.83
2018-07-15T21:57:43.955Z,74.25
2018-07-15T22:02:47.175Z,75.78
2018-07-15T22:08:01.334Z,75.53
2018-07-15T22:13:04.503Z,75.26
2018-07-15T22:18:07.707Z,76.12
2018-07-15T22:23:10.806Z,76.64
2018-07-15T22:28:13.964Z,76.50
2018-07-15T22:33:17.106Z,76.95
2018-07-15T22:38:20.231Z,77.15
2018-07-15T22:43:23.458Z,77.88
2018-07-15T22:48:26.682Z,78.50
2018-07-15T22:53:29.843Z,78.37
2018-07-15T22:58:32.966Z,78.76
2018-07-15T23:03:36.099Z,79.87
2018-07-15T23:08:39.242Z,79.98
2018-07-15T23:13:42.367Z,79.62
2018-07-15T23:18:45.545Z,80.11
2018-07-15T23:23:49.002Z,81.13
2018-07-15T23:28:52.673Z,81.14
2018-07-15T23:33:55.912Z,80.46
2018-07-15T23:38:59.195Z,80.79
2018-07-15T23:44:02.366Z,81.36
2018-07-15T23:49:05.494Z,82.51
2018-07-15T23:54:09.285Z,82.34
2018-07-15T23:59:12.384Z,83.23
